Time;durP1;ratioP1;P1;durP2;ratioP2;P2;SDS_P1;SDS_P2;PMS_P1;PMS_P2;Temp;Humidity;BMP_temperature;BMP_pressure;BME280_temperature;BME280_humidity;BME280_pressure;Samples;Min_cycle;Max_cycle;Signal;HPM_P1;HPM_P2
2022/10/26 00:00:27;;;;;;;16.00;11.10;;;9.20;99.90;;;;;;5026948;28;20176;-31
2022/10/26 00:02:54;;;;;;;16.67;11.63;;;9.20;99.90;;;;;;5017788;28;20038;-29
2022/10/26 00:05:20;;;;;;;16.83;12.00;;;9.10;99.90;;;;;;5027283;28;20040;-30
2022/10/26 00:07:46;;;;;;;18.25;12.77;;;9.10;99.90;;;;;;5032582;28;20037;-30
2022/10/26 00:10:12;;;;;;;11.70;10.50;;;9.10;99.90;;;;;;5026220;28;20037;-30
2022/10/26 00:12:38;;;;;;;15.52;11.45;;;9.10;99.90;;;;;;5027231;28;20393;-33
2022/10/26 00:15:05;;;;;;;15.05;10.40;;;9.10;99.90;;;;;;5024090;28;20036;-30
2022/10/26 00:17:30;;;;;;;13.63;11.07;;;9.00;99.90;;;;;;5022070;28;20059;-30
2022/10/26 00:19:56;;;;;;;14.07;11.10;;;9.00;99.90;;;;;;5026446;28;20390;-31
2022/10/26 00:22:22;;;;;;;13.93;11.63;;;9.00;99.90;;;;;;5031449;28;20037;-31
2022/10/26 00:24:48;;;;;;;16.88;11.50;;;8.90;99.90;;;;;;5027550;28;20040;-30
2022/10/26 00:27:13;;;;;;;14.52;10.88;;;8.90;99.90;;;;;;5031759;28;20153;-30
2022/10/26 00:29:39;;;;;;;15.15;12.77;;;8.90;99.90;;;;;;5010976;28;20046;-32
2022/10/26 00:32:05;;;;;;;18.08;12.57;;;8.90;99.90;;;;;;5030817;28;20037;-30
2022/10/26 00:34:31;;;;;;;17.48;13.52;;;8.90;99.90;;;;;;5032534;28;20103;-30
2022/10/26 00:36:57;;;;;;;17.20;12.45;;;8.90;99.90;;;;;;5027564;28;20038;-29
2022/10/26 00:39:23;;;;;;;21.13;14.68;;;8.80;99.90;;;;;;5033477;28;20067;-30
2022/10/26 00:41:48;;;;;;;18.30;13.00;;;8.90;99.90;;;;;;5033484;28;20045;-30
2022/10/26 00:44:48;;;;;;;16.88;13.85;;;8.90;99.90;;;;;;5033652;28;20038;-29
2022/10/26 00:47:25;;;;;;;15.05;12.20;;;8.90;99.90;;;;;;5033534;28;20495;-30
2022/10/26 00:49:55;;;;;;;20.35;14.27;;;8.80;99.90;;;;;;5033350;28;20041;-30
2022/10/26 00:52:21;;;;;;;19.70;14.27;;;8.80;99.90;;;;;;5033370;28;20042;-30
2022/10/26 00:54:47;;;;;;;19.63;13.85;;;8.70;99.90;;;;;;5033446;28;20038;-30
2022/10/26 00:57:15;;;;;;;22.05;14.00;;;8.70;99.90;;;;;;5033202;28;20064;-31
2022/10/26 00:59:42;;;;;;;14.88;12.68;;;8.70;99.90;;;;;;5033302;28;20376;-31
2022/10/26 01:02:08;;;;;;;16.73;13.02;;;8.70;99.90;;;;;;5027182;28;20048;-30
2022/10/26 01:04:34;;;;;;;21.10;14.15;;;8.60;99.90;;;;;;5032780;28;20033;-30
2022/10/26 01:07:04;;;;;;;17.25;13.82;;;8.60;99.90;;;;;;5033312;28;20048;-32
2022/10/26 01:09:32;;;;;;;16.27;12.85;;;8.60;99.90;;;;;;5015159;28;20045;-30
2022/10/26 01:11:58;;;;;;;16.67;12.77;;;8.60;99.90;;;;;;5033004;28;20041;-29
2022/10/26 01:14:26;;;;;;;24.10;13.63;;;8.60;99.90;;;;;;5032606;28;20086;-29
2022/10/26 01:17:01;;;;;;;15.88;11.85;;;8.50;99.90;;;;;;5032024;28;20049;-30
2022/10/26 01:19:46;;;;;;;21.52;13.93;;;8.50;99.90;;;;;;5032836;28;20390;-30
2022/10/26 01:22:35;;;;;;;17.27;13.60;;;8.50;99.90;;;;;;5024944;28;20499;-32
2022/10/26 01:25:49;;;;;;;20.48;15.23;;;8.50;99.90;;;;;;4999724;28;20522;-30
2022/10/26 01:28:53;;;;;;;18.77;13.45;;;8.50;99.90;;;;;;4925742;28;20051;-29
2022/10/26 01:31:28;;;;;;;15.43;11.63;;;8.40;99.90;;;;;;5013364;28;20120;-31
2022/10/26 01:34:21;;;;;;;18.55;13.05;;;8.40;99.90;;;;;;5032734;28;20068;-30
2022/10/26 01:36:59;;;;;;;17.27;12.95;;;8.40;99.90;;;;;;5026855;28;20034;-30
2022/10/26 01:39:43;;;;;;;18.75;13.48;;;8.40;99.90;;;;;;5032573;28;20033;-29
2022/10/26 01:42:12;;;;;;;20.90;14.68;;;8.40;99.90;;;;;;5032198;28;20037;-30
2022/10/26 01:44:43;;;;;;;17.50;13.63;;;8.30;99.90;;;;;;5014648;28;20063;-29
2022/10/26 01:47:12;;;;;;;18.52;14.75;;;8.30;99.90;;;;;;5032133;28;20376;-29
2022/10/26 01:49:45;;;;;;;17.33;13.82;;;8.30;99.90;;;;;;5020211;28;20450;-30
2022/10/26 01:52:11;;;;;;;24.55;16.98;;;8.30;99.90;;;;;;5012708;28;20038;-32
2022/10/26 01:54:37;;;;;;;20.42;14.68;;;8.30;99.90;;;;;;5012535;28;20038;-30
2022/10/26 01:57:06;;;;;;;19.73;14.57;;;8.30;99.90;;;;;;5012621;28;20057;-30
2022/10/26 01:59:40;;;;;;;20.15;13.32;;;8.30;99.90;;;;;;4994506;28;20042;-30
2022/10/26 02:02:18;;;;;;;19.45;13.80;;;8.30;99.90;;;;;;5029646;28;20330;-36
2022/10/26 02:05:02;;;;;;;21.10;14.98;;;8.30;99.90;;;;;;5031478;28;20426;-30
2022/10/26 02:07:37;;;;;;;20.55;14.55;;;8.20;99.90;;;;;;5025899;28;20041;-31
2022/10/26 02:10:10;;;;;;;19.20;14.25;;;8.20;99.90;;;;;;5031440;28;20124;-31
2022/10/26 02:12:41;;;;;;;19.97;14.13;;;8.20;99.90;;;;;;5031543;28;20049;-31
2022/10/26 02:15:21;;;;;;;26.38;18.15;;;8.20;99.90;;;;;;5031219;28;20038;-30
2022/10/26 02:17:50;;;;;;;25.92;17.52;;;8.30;99.90;;;;;;5031399;28;20120;-30
2022/10/26 02:20:28;;;;;;;28.60;19.00;;;8.30;99.90;;;;;;5013269;28;20049;-30
2022/10/26 02:22:55;;;;;;;31.20;20.60;;;8.40;99.90;;;;;;5023177;28;20042;-30
2022/10/26 02:25:26;;;;;;;24.10;17.30;;;8.40;99.90;;;;;;5031167;28;20037;-30
2022/10/26 02:27:57;;;;;;;27.33;18.65;;;8.40;99.90;;;;;;5031445;28;20029;-29
2022/10/26 02:30:22;;;;;;;21.85;16.27;;;8.40;99.90;;;;;;5030074;28;20167;-31
2022/10/26 02:32:52;;;;;;;22.15;17.25;;;8.40;99.90;;;;;;5010243;28;20124;-31
2022/10/26 02:35:22;;;;;;;20.83;14.98;;;8.40;99.90;;;;;;5031181;28;20032;-31
2022/10/26 02:37:51;;;;;;;21.42;15.95;;;8.40;99.90;;;;;;5031195;28;20046;-30
2022/10/26 02:40:22;;;;;;;21.45;16.70;;;8.40;99.90;;;;;;5031168;28;20038;-30
2022/10/26 02:42:50;;;;;;;24.23;16.75;;;8.40;99.90;;;;;;5026227;28;20057;-30
2022/10/26 02:45:21;;;;;;;22.02;15.27;;;8.40;99.90;;;;;;5016199;28;20509;-29
2022/10/26 02:47:47;;;;;;;20.27;15.45;;;8.40;99.90;;;;;;5019296;28;20108;-30
2022/10/26 02:50:13;;;;;;;21.92;16.00;;;8.30;99.90;;;;;;5024104;28;20498;-29
2022/10/26 02:53:03;;;;;;;18.02;15.18;;;8.30;99.90;;;;;;5030539;28;20047;-30
2022/10/26 02:55:44;;;;;;;20.05;14.55;;;8.40;99.90;;;;;;5021457;28;20045;-31
2022/10/26 02:58:19;;;;;;;20.15;15.48;;;8.30;99.90;;;;;;5030247;28;20067;-30
2022/10/26 03:00:45;;;;;;;22.52;15.85;;;8.30;99.90;;;;;;5014771;28;20038;-30
2022/10/26 03:03:11;;;;;;;19.77;15.85;;;8.40;99.90;;;;;;5012785;28;20060;-30
2022/10/26 03:05:41;;;;;;;25.17;17.85;;;8.30;99.90;;;;;;5030848;28;20037;-30
2022/10/26 03:08:06;;;;;;;20.58;16.13;;;8.30;99.90;;;;;;5029485;28;20053;-30
2022/10/26 03:10:35;;;;;;;22.60;17.42;;;8.40;99.90;;;;;;5011284;28;20042;-29
2022/10/26 03:13:00;;;;;;;20.58;17.17;;;8.40;99.90;;;;;;5024473;28;20055;-30
2022/10/26 03:15:26;;;;;;;21.77;16.45;;;8.40;99.90;;;;;;5024936;28;20045;-28
2022/10/26 03:17:52;;;;;;;25.73;18.17;;;8.40;99.90;;;;;;5001812;28;20434;-29
2022/10/26 03:20:18;;;;;;;23.85;17.58;;;8.40;99.90;;;;;;5018801;28;20103;-28
2022/10/26 03:22:47;;;;;;;31.75;21.90;;;8.50;99.90;;;;;;5016604;28;20046;-28
2022/10/26 03:25:14;;;;;;;24.50;17.48;;;8.50;99.90;;;;;;5018831;28;20053;-28
2022/10/26 03:27:40;;;;;;;21.90;16.90;;;8.50;99.90;;;;;;5019085;28;20092;-29
2022/10/26 03:30:06;;;;;;;21.73;16.50;;;8.50;99.90;;;;;;5004384;28;20080;-30
2022/10/26 03:32:32;;;;;;;24.73;17.92;;;8.50;99.90;;;;;;5030533;28;20064;-29
2022/10/26 03:34:58;;;;;;;26.08;17.58;;;8.50;99.90;;;;;;5018363;28;20042;-29
2022/10/26 03:37:24;;;;;;;22.77;16.92;;;8.40;99.90;;;;;;5028019;28;20052;-30
2022/10/26 03:39:49;;;;;;;20.55;15.50;;;8.40;99.90;;;;;;5032024;28;20471;-29
2022/10/26 03:42:15;;;;;;;22.27;16.23;;;8.40;99.90;;;;;;5033040;28;20045;-29
2022/10/26 03:44:40;;;;;;;24.13;16.95;;;8.40;99.90;;;;;;5028118;28;20112;-32
2022/10/26 03:47:06;;;;;;;23.65;18.00;;;8.40;99.90;;;;;;5028922;28;20069;-32
2022/10/26 03:49:32;;;;;;;21.75;16.92;;;8.40;99.90;;;;;;5027670;28;20053;-30
2022/10/26 03:51:57;;;;;;;23.50;16.50;;;8.30;99.90;;;;;;5033679;28;20107;-30
2022/10/26 03:54:24;;;;;;;26.63;18.35;;;8.30;99.90;;;;;;5029820;28;20043;-29
2022/10/26 03:56:49;;;;;;;18.67;15.02;;;8.30;99.90;;;;;;5023872;28;20041;-29
2022/10/26 03:59:15;;;;;;;22.30;16.58;;;8.30;99.90;;;;;;5032921;28;20030;-30
2022/10/26 04:01:40;;;;;;;32.05;18.60;;;8.30;99.90;;;;;;5031039;28;20045;-31
2022/10/26 04:04:06;;;;;;;24.45;17.95;;;8.30;99.90;;;;;;5027419;28;20092;-30
2022/10/26 04:06:32;;;;;;;26.40;17.67;;;8.30;99.90;;;;;;5011755;28;20087;-29
2022/10/26 04:09:01;;;;;;;29.63;20.67;;;8.40;99.90;;;;;;5032805;28;20486;-30
2022/10/26 04:11:27;;;;;;;24.23;18.15;;;8.40;99.90;;;;;;5025892;28;20048;-29
2022/10/26 04:13:54;;;;;;;27.52;18.75;;;8.40;99.90;;;;;;5025746;28;20041;-30
2022/10/26 04:16:20;;;;;;;31.40;21.67;;;8.40;99.90;;;;;;5032424;28;20038;-30
2022/10/26 04:18:45;;;;;;;25.83;18.38;;;8.40;99.90;;;;;;5032407;28;20067;-30
2022/10/26 04:21:11;;;;;;;23.77;16.60;;;8.40;99.90;;;;;;5027824;28;20155;-29
2022/10/26 04:23:37;;;;;;;28.42;19.15;;;8.50;99.90;;;;;;5027140;28;20080;-30
2022/10/26 04:26:04;;;;;;;24.92;18.13;;;8.50;99.90;;;;;;5021342;28;20106;-30
2022/10/26 04:28:30;;;;;;;26.60;19.02;;;8.50;99.90;;;;;;5023957;28;20038;-30
2022/10/26 04:30:55;;;;;;;31.23;21.67;;;8.60;99.90;;;;;;5024950;28;20536;-29
2022/10/26 04:33:21;;;;;;;35.28;21.98;;;8.50;99.90;;;;;;5031467;28;20060;-31
2022/10/26 04:35:47;;;;;;;35.30;23.25;;;8.60;99.90;;;;;;5023679;28;20150;-31
2022/10/26 04:38:13;;;;;;;35.70;22.20;;;8.80;99.90;;;;;;5032824;28;20076;-31
2022/10/26 04:40:38;;;;;;;35.80;21.08;;;8.80;99.90;;;;;;5031610;28;20061;-30
2022/10/26 04:43:04;;;;;;;36.20;22.17;;;8.80;99.90;;;;;;5032392;28;20045;-30
2022/10/26 04:45:30;;;;;;;31.30;21.45;;;8.90;99.90;;;;;;5015970;28;20036;-30
2022/10/26 04:47:59;;;;;;;29.48;19.98;;;8.90;99.90;;;;;;5033813;28;20425;-30
2022/10/26 04:50:26;;;;;;;28.27;20.20;;;9.00;99.90;;;;;;5032827;28;20053;-30
2022/10/26 04:52:52;;;;;;;31.90;20.20;;;9.00;99.90;;;;;;5033051;28;20068;-30
2022/10/26 04:55:17;;;;;;;31.40;20.85;;;9.00;99.90;;;;;;5015475;28;20413;-29
2022/10/26 04:57:44;;;;;;;27.83;19.02;;;9.10;99.90;;;;;;5033052;28;20103;-30
2022/10/26 05:00:12;;;;;;;26.52;19.73;;;9.10;99.90;;;;;;5027576;28;20033;-30
2022/10/26 05:02:37;;;;;;;25.77;17.73;;;9.10;99.90;;;;;;5032863;28;20080;-30
2022/10/26 05:05:03;;;;;;;28.33;18.95;;;9.10;99.90;;;;;;5033016;28;20491;-29
2022/10/26 05:07:29;;;;;;;31.35;21.65;;;9.10;99.90;;;;;;5015087;28;20124;-29
2022/10/26 05:09:54;;;;;;;29.52;19.85;;;9.20;99.90;;;;;;5033303;28;20060;-31
2022/10/26 05:12:20;;;;;;;28.40;18.52;;;9.20;99.90;;;;;;5032797;28;20033;-30
2022/10/26 05:14:46;;;;;;;23.80;17.75;;;9.20;99.90;;;;;;5033212;28;20501;-32
2022/10/26 05:17:11;;;;;;;26.75;18.25;;;9.20;99.90;;;;;;5032876;28;20061;-30
2022/10/26 05:19:37;;;;;;;25.00;18.92;;;9.20;99.90;;;;;;5032402;28;20045;-29
2022/10/26 05:22:03;;;;;;;23.63;17.05;;;9.30;99.90;;;;;;5033114;28;20218;-31
2022/10/26 05:24:28;;;;;;;22.70;17.40;;;9.30;99.90;;;;;;5015173;28;20041;-29
2022/10/26 05:26:54;;;;;;;23.73;16.85;;;9.30;99.90;;;;;;5032612;28;20033;-29
2022/10/26 05:29:19;;;;;;;23.30;16.15;;;9.30;99.90;;;;;;5028670;28;20033;-33
2022/10/26 05:31:45;;;;;;;24.48;15.32;;;9.30;99.90;;;;;;5015835;28;20548;-29
2022/10/26 05:34:11;;;;;;;25.58;16.27;;;9.30;99.90;;;;;;5033035;28;20172;-31
2022/10/26 05:36:36;;;;;;;20.67;15.65;;;9.30;99.90;;;;;;5032746;28;20045;-30
2022/10/26 05:39:02;;;;;;;22.80;16.20;;;9.40;99.90;;;;;;5032098;28;20066;-30
2022/10/26 05:41:28;;;;;;;25.67;16.60;;;9.40;99.90;;;;;;5014915;28;20037;-30
2022/10/26 05:43:54;;;;;;;25.45;16.65;;;9.50;99.90;;;;;;5032601;28;20057;-30
2022/10/26 05:46:19;;;;;;;25.35;16.35;;;9.50;99.90;;;;;;5032847;28;20484;-30
2022/10/26 05:48:45;;;;;;;23.35;15.68;;;9.60;99.90;;;;;;5012454;28;20518;-29
2022/10/26 05:51:11;;;;;;;21.98;16.27;;;9.60;99.90;;;;;;5030006;28;20418;-29
2022/10/26 05:53:37;;;;;;;22.23;14.88;;;9.60;99.90;;;;;;5011286;28;20049;-30
2022/10/26 05:56:19;;;;;;;21.42;15.00;;;9.60;99.90;;;;;;5029645;28;20029;-30
2022/10/26 05:58:46;;;;;;;23.73;14.82;;;9.70;99.90;;;;;;5029344;28;20048;-29
2022/10/26 06:01:43;;;;;;;21.02;14.27;;;9.70;99.90;;;;;;5029713;28;20087;-30
2022/10/26 06:04:16;;;;;;;24.23;15.82;;;9.70;99.90;;;;;;5031471;28;20418;-29
2022/10/26 06:06:45;;;;;;;23.20;16.10;;;9.70;99.90;;;;;;5032582;28;20056;-31
2022/10/26 06:09:20;;;;;;;23.33;16.40;;;9.80;99.90;;;;;;5032720;28;20646;-30
2022/10/26 06:11:46;;;;;;;19.48;14.98;;;9.80;99.90;;;;;;5014554;28;20045;-30
2022/10/26 06:14:12;;;;;;;23.52;15.88;;;9.80;99.90;;;;;;5032533;28;20428;-30
2022/10/26 06:17:03;;;;;;;19.70;15.38;;;9.80;99.90;;;;;;5032466;28;20052;-29
2022/10/26 06:19:53;;;;;;;21.83;14.30;;;9.80;99.90;;;;;;5013995;28;20060;-30
2022/10/26 06:22:25;;;;;;;21.35;13.98;;;9.80;99.90;;;;;;5032107;28;20581;-29
2022/10/26 06:25:10;;;;;;;19.92;13.88;;;9.80;99.90;;;;;;5013178;28;20038;-30
2022/10/26 06:27:51;;;;;;;20.33;14.05;;;9.80;99.90;;;;;;5011990;28;20038;-29
2022/10/26 06:30:19;;;;;;;19.00;13.82;;;9.80;99.90;;;;;;5012177;28;20061;-29
2022/10/26 06:32:45;;;;;;;20.25;14.43;;;9.80;99.90;;;;;;5011907;28;20038;-29
2022/10/26 06:35:17;;;;;;;18.98;14.88;;;9.80;99.90;;;;;;4976153;28;20050;-30
2022/10/26 06:37:44;;;;;;;19.85;14.57;;;9.80;99.90;;;;;;5011246;28;20077;-31
2022/10/26 06:40:15;;;;;;;18.40;13.60;;;9.80;99.90;;;;;;5011799;28;20080;-30
2022/10/26 06:42:42;;;;;;;19.02;13.77;;;9.80;99.90;;;;;;5010304;28;20084;-30
2022/10/26 06:45:13;;;;;;;16.70;13.02;;;9.80;99.90;;;;;;5010021;28;20076;-31
2022/10/26 06:47:54;;;;;;;21.17;13.60;;;9.80;99.90;;;;;;5011083;28;20129;-30
2022/10/26 06:50:45;;;;;;;16.67;13.77;;;9.80;99.90;;;;;;5008745;28;20054;-31
2022/10/26 06:53:13;;;;;;;16.73;12.63;;;9.80;99.90;;;;;;5008539;28;20415;-30
2022/10/26 06:55:44;;;;;;;17.13;12.13;;;9.80;99.90;;;;;;5008696;28;20049;-30
2022/10/26 06:58:15;;;;;;;18.67;12.65;;;9.70;99.90;;;;;;5008555;28;20037;-31
2022/10/26 07:00:43;;;;;;;15.23;11.60;;;9.70;99.90;;;;;;5008186;28;20046;-30
2022/10/26 07:03:08;;;;;;;19.48;12.23;;;9.70;99.90;;;;;;5008495;28;20143;-30
2022/10/26 07:05:34;;;;;;;16.15;12.32;;;9.70;99.90;;;;;;5011498;28;20069;-30
2022/10/26 07:08:00;;;;;;;15.90;11.80;;;9.70;99.90;;;;;;5025782;28;20021;-31
2022/10/26 07:10:26;;;;;;;21.33;12.07;;;9.80;99.90;;;;;;5011819;28;20103;-31
2022/10/26 07:12:51;;;;;;;20.42;12.95;;;9.70;99.90;;;;;;4994415;28;20262;-31
2022/10/26 07:15:17;;;;;;;16.42;12.88;;;9.80;99.90;;;;;;5030544;28;20037;-31
2022/10/26 07:17:44;;;;;;;16.35;12.60;;;9.80;99.90;;;;;;5031241;28;20044;-31
2022/10/26 07:20:11;;;;;;;15.55;12.75;;;9.90;99.90;;;;;;5031131;28;20046;-30
2022/10/26 07:22:41;;;;;;;19.33;12.50;;;9.90;99.90;;;;;;5030882;28;20117;-29
2022/10/26 07:25:08;;;;;;;15.50;12.63;;;10.00;99.90;;;;;;5030727;28;20050;-31
2022/10/26 07:27:33;;;;;;;16.70;12.63;;;10.20;99.90;;;;;;5013303;28;20407;-30
2022/10/26 07:29:59;;;;;;;17.73;11.98;;;10.30;99.90;;;;;;5031075;28;20040;-30
2022/10/26 07:32:25;;;;;;;15.65;11.85;;;10.50;99.90;;;;;;5030805;28;20041;-31
2022/10/26 07:34:51;;;;;;;16.40;10.93;;;10.60;99.90;;;;;;5030952;28;20045;-30
2022/10/26 07:37:16;;;;;;;16.10;12.15;;;10.70;99.90;;;;;;5030878;28;20038;-30
2022/10/26 07:39:42;;;;;;;14.43;10.52;;;10.80;99.90;;;;;;5030989;28;20033;-30
2022/10/26 07:42:08;;;;;;;16.08;11.23;;;10.90;99.90;;;;;;5031093;28;20426;-29
2022/10/26 07:44:34;;;;;;;19.65;11.35;;;11.00;99.90;;;;;;5031104;28;20049;-30
2022/10/26 07:47:03;;;;;;;13.82;10.45;;;11.00;99.90;;;;;;5031031;28;20029;-30
2022/10/26 07:49:30;;;;;;;15.95;10.65;;;11.10;99.90;;;;;;5030516;28;20044;-29
2022/10/26 07:51:56;;;;;;;13.40;9.70;;;11.10;99.90;;;;;;5030559;28;20139;-30
2022/10/26 07:54:22;;;;;;;13.52;10.02;;;11.10;99.90;;;;;;5030711;28;20072;-30
2022/10/26 07:56:50;;;;;;;15.07;10.52;;;11.20;99.90;;;;;;5031343;28;20042;-31
2022/10/26 07:59:17;;;;;;;15.00;10.63;;;11.30;99.90;;;;;;5030449;28;20049;-30
2022/10/26 08:01:43;;;;;;;12.40;9.50;;;11.40;99.90;;;;;;5030936;28;20111;-30
2022/10/26 08:04:12;;;;;;;12.25;8.82;;;11.60;99.90;;;;;;5030442;28;20045;-30
2022/10/26 08:06:37;;;;;;;14.23;9.77;;;11.90;99.90;;;;;;5030231;28;20524;-30
2022/10/26 08:09:03;;;;;;;15.20;9.18;;;12.40;99.90;;;;;;5030762;28;20037;-30
2022/10/26 08:11:29;;;;;;;11.35;8.27;;;13.10;99.90;;;;;;5030598;28;20045;-31
2022/10/26 08:13:55;;;;;;;10.93;7.75;;;13.60;99.90;;;;;;5013035;28;20037;-31
2022/10/26 08:16:21;;;;;;;9.60;7.15;;;13.90;99.90;;;;;;5030636;28;20034;-30
2022/10/26 08:18:48;;;;;;;9.52;8.60;;;14.10;99.90;;;;;;5012973;28;20045;-31
2022/10/26 08:21:14;;;;;;;10.38;7.38;;;14.50;99.90;;;;;;5030215;28;20045;-30
2022/10/26 08:23:42;;;;;;;8.93;7.35;;;14.90;99.90;;;;;;5030553;28;20042;-31
2022/10/26 08:26:10;;;;;;;9.68;6.97;;;15.50;99.90;;;;;;5032246;28;20455;-31
2022/10/26 08:28:36;;;;;;;8.32;7.15;;;15.90;99.90;;;;;;5034117;28;20084;-31
2022/10/26 08:31:02;;;;;;;8.93;6.70;;;16.00;99.90;;;;;;5034085;28;20041;-31
2022/10/26 08:33:28;;;;;;;9.38;6.45;;;16.30;99.90;;;;;;5034007;28;20045;-31
2022/10/26 08:36:02;;;;;;;7.97;6.53;;;16.40;99.90;;;;;;5033998;28;20038;-32
2022/10/26 08:38:28;;;;;;;9.93;6.70;;;16.50;99.90;;;;;;5033745;28;20052;-32
2022/10/26 08:40:56;;;;;;;10.30;7.10;;;16.30;99.90;;;;;;5033819;28;20049;-31
2022/10/26 08:43:28;;;;;;;6.68;6.00;;;16.10;99.90;;;;;;5033768;28;20099;-30
2022/10/26 08:46:16;;;;;;;7.88;6.28;;;15.70;99.90;;;;;;5033621;28;20089;-31
2022/10/26 08:49:18;;;;;;;8.55;6.18;;;15.80;99.90;;;;;;5015696;28;20406;-31
2022/10/26 08:51:44;;;;;;;7.60;6.80;;;16.50;99.90;;;;;;5033673;28;20542;-30
2022/10/26 08:54:41;;;;;;;8.73;6.72;;;17.30;99.90;;;;;;5032578;28;20060;-33
2022/10/26 08:57:34;;;;;;;8.43;6.38;;;18.00;99.90;;;;;;4939580;28;21655;-34
2022/10/26 09:00:06;;;;;;;6.88;5.68;;;18.50;99.90;;;;;;5022881;28;20108;-34
2022/10/26 09:02:32;;;;;;;7.40;6.13;;;18.90;99.90;;;;;;5028156;28;20037;-32
2022/10/26 09:04:58;;;;;;;7.50;5.68;;;19.10;99.90;;;;;;5027553;28;20042;-32
2022/10/26 09:07:33;;;;;;;6.88;5.50;;;19.30;99.90;;;;;;5023103;28;20091;-32
2022/10/26 09:10:26;;;;;;;6.75;4.57;;;19.50;99.90;;;;;;5028978;28;20095;-35
2022/10/26 09:13:17;;;;;;;5.28;4.75;;;20.00;99.90;;;;;;5016148;28;20041;-32
2022/10/26 09:16:05;;;;;;;7.25;4.85;;;20.20;99.90;;;;;;5026389;28;20431;-33
2022/10/26 09:19:00;;;;;;;5.50;4.40;;;20.70;99.90;;;;;;5020636;28;20045;-33
2022/10/26 09:21:56;;;;;;;5.03;4.20;;;21.00;99.90;;;;;;5026323;28;20053;-34
2022/10/26 09:24:31;;;;;;;5.13;3.90;;;21.10;99.90;;;;;;5028517;28;20048;-32
2022/10/26 09:27:25;;;;;;;8.10;3.95;;;21.30;99.90;;;;;;5020903;28;20565;-32
2022/10/26 09:29:52;;;;;;;7.50;4.68;;;21.70;99.90;;;;;;5022648;28;20039;-33
2022/10/26 09:32:29;;;;;;;7.55;5.18;;;22.20;99.90;;;;;;5009080;28;20046;-35
2022/10/26 09:35:00;;;;;;;5.70;4.03;;;22.20;99.90;;;;;;5028611;28;20069;-33
2022/10/26 09:37:34;;;;;;;5.30;3.70;;;22.30;99.90;;;;;;5028314;28;20064;-34
2022/10/26 09:40:23;;;;;;;7.57;4.82;;;22.30;99.90;;;;;;5026371;28;20042;-34
2022/10/26 09:43:15;;;;;;;11.02;5.97;;;22.40;99.90;;;;;;5024620;28;20072;-34
2022/10/26 09:45:47;;;;;;;6.20;4.95;;;22.50;99.90;;;;;;5024040;28;20030;-35
2022/10/26 09:48:28;;;;;;;5.90;5.03;;;22.60;99.90;;;;;;5025888;28;20048;-34
2022/10/26 09:50:55;;;;;;;5.47;4.10;;;23.10;99.90;;;;;;5028678;28;20048;-34
2022/10/26 09:53:21;;;;;;;5.85;4.03;;;23.70;99.90;;;;;;5025938;28;20064;-34
2022/10/26 09:55:49;;;;;;;6.13;3.53;;;24.10;99.90;;;;;;5022793;28;20042;-33
2022/10/26 09:58:22;;;;;;;4.68;3.22;;;24.20;99.90;;;;;;5030582;28;20502;-34
2022/10/26 10:00:47;;;;;;;5.00;3.00;;;24.20;99.90;;;;;;5010240;28;20045;-34
2022/10/26 10:03:19;;;;;;;5.45;2.60;;;24.40;99.90;;;;;;5020588;28;20544;-34
2022/10/26 10:05:44;;;;;;;7.80;2.60;;;24.70;93.10;;;;;;5012466;28;20091;-35
2022/10/26 10:08:13;;;;;;;5.05;2.80;;;24.50;99.90;;;;;;5030441;28;20117;-34
2022/10/26 10:10:56;;;;;;;4.53;2.35;;;23.90;99.90;;;;;;5018029;28;20129;-34
2022/10/26 10:13:25;;;;;;;5.07;2.53;;;23.70;99.90;;;;;;5011655;28;20045;-33
2022/10/26 10:16:00;;;;;;;3.30;2.88;;;23.40;99.90;;;;;;5014427;28;20042;-33
2022/10/26 10:18:26;;;;;;;3.20;2.50;;;23.20;99.90;;;;;;5009783;28;20045;-33
2022/10/26 10:20:57;;;;;;;4.78;3.00;;;22.90;99.90;;;;;;5029395;28;20044;-33
2022/10/26 10:23:33;;;;;;;2.83;2.50;;;22.60;99.90;;;;;;5025833;28;20124;-35
2022/10/26 10:26:07;;;;;;;4.78;2.60;;;22.90;99.90;;;;;;5022977;28;20041;-34
2022/10/26 10:28:34;;;;;;;3.67;2.50;;;23.30;98.60;;;;;;5021168;28;20521;-34
2022/10/26 10:31:02;;;;;;;4.68;2.85;;;23.80;99.90;;;;;;5014171;28;20566;-34
2022/10/26 10:33:39;;;;;;;6.53;2.90;;;24.00;99.90;;;;;;5023075;28;20438;-34
2022/10/26 10:36:14;;;;;;;3.60;2.60;;;24.10;99.30;;;;;;5023530;28;20037;-33
2022/10/26 10:38:42;;;;;;;5.65;3.17;;;24.00;99.90;;;;;;5017071;28;20033;-34
2022/10/26 10:41:29;;;;;;;4.80;3.20;;;24.10;99.30;;;;;;5018997;28;20038;-34
2022/10/26 10:48:19;;;;;;;4.35;2.50;;;24.10;90.60;;;;;;5075829;28;20077;-89
2022/10/26 10:51:51;;;;;;;4.53;3.20;;;24.00;97.70;;;;;;5058126;28;20044;-91
2022/10/26 10:54:52;;;;;;;7.38;3.47;;;23.90;95.50;;;;;;5016710;28;20035;-91
2022/10/26 10:57:58;;;;;;;4.85;3.30;;;24.00;97.80;;;;;;5039150;28;20041;-90
2022/10/26 11:09:06;;;;;;;5.40;3.17;;;24.00;97.50;;;;;;4940393;28;20047;-89
2022/10/26 11:12:02;;;;;;;5.95;3.20;;;23.70;93.10;;;;;;5016063;28;20445;-90
2022/10/26 11:14:56;;;;;;;4.20;3.00;;;23.80;99.90;;;;;;5046342;28;20036;-91
2022/10/26 11:18:21;;;;;;;2.97;2.75;;;23.90;96.30;;;;;;5038840;28;20109;-91
2022/10/26 11:32:31;;;;;;;5.85;2.92;;;23.20;99.40;;;;;;4972506;28;20121;-88
2022/10/26 12:09:42;;;;;;;7.25;3.83;;;24.20;99.90;;;;;;4976583;28;20073;-91
2022/10/26 12:12:23;;;;;;;4.47;3.50;;;24.80;98.70;;;;;;4969145;28;20051;-80
2022/10/26 12:14:57;;;;;;;5.85;3.40;;;25.00;94.30;;;;;;4982794;28;20681;-80
2022/10/26 12:17:37;;;;;;;6.85;3.20;;;25.00;96.40;;;;;;5041162;28;20064;-81
2022/10/26 12:20:38;;;;;;;4.22;2.90;;;24.70;94.70;;;;;;5039217;28;20459;-80
2022/10/26 12:23:07;;;;;;;12.90;7.28;;;24.20;97.00;;;;;;5053412;28;20045;-80
2022/10/26 12:25:32;;;;;;;6.43;4.03;;;23.50;99.90;;;;;;5044716;28;20037;-81
2022/10/26 12:27:59;;;;;;;5.38;2.97;;;23.70;99.90;;;;;;5050144;28;20037;-80
2022/10/26 12:30:30;;;;;;;4.70;3.20;;;24.30;99.90;;;;;;5038769;28;20102;-81
2022/10/26 12:32:59;;;;;;;5.05;2.95;;;24.70;99.90;;;;;;5037525;28;20051;-82
2022/10/26 12:35:36;;;;;;;6.20;2.97;;;25.20;99.90;;;;;;5054588;28;20044;-81
2022/10/26 12:38:22;;;;;;;4.63;2.70;;;26.00;98.00;;;;;;5040324;28;20040;-80
2022/10/26 12:41:06;;;;;;;5.03;3.22;;;26.50;79.80;;;;;;5004672;28;20084;-82
2022/10/26 12:43:34;;;;;;;4.00;2.42;;;26.90;86.40;;;;;;5041584;28;20041;-81
2022/10/26 12:46:12;;;;;;;4.78;2.85;;;27.40;79.20;;;;;;5030069;28;20048;-81
2022/10/26 12:48:52;;;;;;;4.53;3.00;;;27.10;70.10;;;;;;5061347;28;20050;-81
2022/10/26 12:51:17;;;;;;;6.40;3.03;;;27.10;66.40;;;;;;5066452;28;20041;-80
2022/10/26 12:53:49;;;;;;;5.03;3.08;;;26.80;71.90;;;;;;5031275;28;20075;-81
2022/10/26 12:56:19;;;;;;;3.25;2.75;;;27.10;74.10;;;;;;5044571;28;20064;-81
2022/10/26 12:58:51;;;;;;;4.22;2.92;;;27.70;68.00;;;;;;5061759;28;20043;-81
2022/10/26 13:01:35;;;;;;;8.70;2.90;;;27.90;63.10;;;;;;5053746;28;20047;-81
2022/10/26 13:04:11;;;;;;;5.00;3.13;;;27.70;61.60;;;;;;5042370;28;20049;-81
2022/10/26 13:07:12;;;;;;;4.05;2.88;;;27.30;67.80;;;;;;5039961;28;20067;-81
2022/10/26 13:09:37;;;;;;;5.38;3.00;;;27.40;61.40;;;;;;5062509;28;20033;-80
2022/10/26 13:12:04;;;;;;;6.32;2.97;;;27.40;65.50;;;;;;5050408;28;20139;-80
2022/10/26 13:14:37;;;;;;;6.65;2.75;;;27.40;65.80;;;;;;5043316;28;20163;-80
2022/10/26 13:17:23;;;;;;;4.85;3.35;;;27.40;66.90;;;;;;5028831;28;20640;-79
2022/10/26 13:19:55;;;;;;;6.40;3.10;;;26.40;65.00;;;;;;5054798;28;20033;-81
2022/10/26 13:22:21;;;;;;;5.60;3.27;;;26.00;72.90;;;;;;5049206;28;20080;-80
2022/10/26 13:25:04;;;;;;;6.35;2.97;;;25.50;79.70;;;;;;5050519;28;20025;-80
2022/10/26 13:27:32;;;;;;;5.97;3.20;;;25.00;88.10;;;;;;5061919;28;20044;-80
2022/10/26 13:30:19;;;;;;;5.63;3.15;;;24.30;94.20;;;;;;5050698;28;20052;-81
2022/10/26 13:32:55;;;;;;;5.20;3.70;;;23.70;99.50;;;;;;5029539;28;20037;-81
2022/10/26 13:35:24;;;;;;;6.00;3.40;;;23.40;99.90;;;;;;5060087;28;20036;-80
2022/10/26 13:37:52;;;;;;;7.93;3.35;;;24.20;99.90;;;;;;5050492;28;20059;-81
2022/10/26 13:40:25;;;;;;;7.35;3.28;;;25.00;97.80;;;;;;5062157;28;20029;-81
2022/10/26 13:43:02;;;;;;;4.78;3.50;;;24.90;96.00;;;;;;5047270;28;20043;-81
2022/10/26 13:45:31;;;;;;;7.65;3.80;;;24.90;97.40;;;;;;5037416;28;20412;-81
2022/10/26 13:48:26;;;;;;;4.60;3.30;;;25.20;95.90;;;;;;5051086;28;20529;-79
2022/10/26 13:50:54;;;;;;;5.85;3.50;;;25.80;95.20;;;;;;5035581;28;20048;-81
2022/10/26 13:53:45;;;;;;;10.23;3.88;;;26.10;92.10;;;;;;5061505;28;20045;-81
2022/10/26 13:56:17;;;;;;;8.82;3.30;;;26.50;89.70;;;;;;5043349;28;20141;-81
2022/10/26 13:58:50;;;;;;;4.88;3.35;;;26.90;81.60;;;;;;5050849;28;20040;-79
2022/10/26 14:01:20;;;;;;;6.88;3.67;;;27.30;77.10;;;;;;5044044;28;20055;-81
2022/10/26 14:03:48;;;;;;;6.22;3.55;;;26.90;71.30;;;;;;5020975;28;20040;-81